sensor_id;sensor_type;location;lat;lon;timestamp;pressure;altitude;pressure_sealevel;temperature;humidity
55664;BME280;41540;57.880;12.164;2022-07-10T00:06:13;101747.81;;;11.12;100.00
55664;BME280;41540;57.880;12.164;2022-07-10T00:16:13;101831.09;;;11.20;100.00
55664;BME280;41540;57.880;12.164;2022-07-10T00:26:13;101883.59;;;10.90;100.00
55664;BME280;41540;57.880;12.164;2022-07-10T00:36:14;101924.75;;;10.81;100.00
55664;BME280;41540;57.880;12.164;2022-07-10T00:46:14;101932.56;;;10.83;100.00
55664;BME280;41540;57.880;12.164;2022-07-10T00:56:22;101850.88;;;10.70;100.00
55664;BME280;41540;57.880;12.164;2022-07-10T01:06:22;101694.06;;;10.33;100.00
55664;BME280;41540;57.880;12.164;2022-07-10T01:16:23;101558.28;;;10.28;100.00
55664;BME280;41540;57.880;12.164;2022-07-10T01:26:24;101493.47;;;10.50;100.00
55664;BME280;41540;57.880;12.164;2022-07-10T01:36:27;101509.59;;;10.42;100.00
55664;BME280;41540;57.880;12.164;2022-07-10T01:46:28;101568.84;;;10.58;100.00
55664;BME280;41540;57.880;12.164;2022-07-10T01:56:29;101738.44;;;10.66;100.00
55664;BME280;41540;57.880;12.164;2022-07-10T02:06:29;101857.19;;;10.54;100.00
55664;BME280;41540;57.880;12.164;2022-07-10T02:16:30;101887.81;;;10.87;100.00
55664;BME280;41540;57.880;12.164;2022-07-10T02:26:30;101868.13;;;10.47;100.00
55664;BME280;41540;57.880;12.164;2022-07-10T02:36:31;101533.66;;;10.65;100.00
55664;BME280;41540;57.880;12.164;2022-07-10T02:46:31;101287.88;;;10.48;100.00
55664;BME280;41540;57.880;12.164;2022-07-10T02:56:31;101250.72;;;10.78;100.00
55664;BME280;41540;57.880;12.164;2022-07-10T03:06:32;101185.50;;;10.95;100.00
55664;BME280;41540;57.880;12.164;2022-07-10T03:16:32;101082.22;;;11.13;100.00
55664;BME280;41540;57.880;12.164;2022-07-10T03:26:33;100991.50;;;10.77;100.00
55664;BME280;41540;57.880;12.164;2022-07-10T03:36:33;100978.19;;;10.99;100.00
55664;BME280;41540;57.880;12.164;2022-07-10T03:46:34;101037.25;;;11.50;100.00
55664;BME280;41540;57.880;12.164;2022-07-10T03:56:34;101014.72;;;11.48;100.00
55664;BME280;41540;57.880;12.164;2022-07-10T04:06:53;101003.72;;;12.02;100.00
55664;BME280;41540;57.880;12.164;2022-07-10T04:16:54;100958.84;;;12.11;100.00
55664;BME280;41540;57.880;12.164;2022-07-10T04:26:54;100917.13;;;17.37;100.00
55664;BME280;41540;57.880;12.164;2022-07-10T04:36:54;100810.00;;;27.02;93.92
55664;BME280;41540;57.880;12.164;2022-07-10T04:46:55;100336.03;;;31.86;61.02
55664;BME280;41540;57.880;12.164;2022-07-10T04:56:55;100372.41;;;28.57;69.12
55664;BME280;41540;57.880;12.164;2022-07-10T05:06:56;100378.69;;;27.48;65.79
55664;BME280;41540;57.880;12.164;2022-07-10T05:16:56;100333.31;;;31.75;nan
55664;BME280;41540;57.880;12.164;2022-07-10T05:26:57;100405.81;;;25.05;nan
55664;BME280;41540;57.880;12.164;2022-07-10T05:36:57;100374.72;;;22.91;nan
55664;BME280;41540;57.880;12.164;2022-07-10T05:46:58;100280.47;;;30.02;nan
55664;BME280;41540;57.880;12.164;2022-07-10T05:56:58;100298.84;;;26.84;nan
55664;BME280;41540;57.880;12.164;2022-07-10T06:06:58;100791.16;;;19.32;nan
55664;BME280;41540;57.880;12.164;2022-07-10T06:16:59;101439.31;;;18.35;nan
55664;BME280;41540;57.880;12.164;2022-07-10T06:26:59;101430.44;;;17.49;nan
55664;BME280;41540;57.880;12.164;2022-07-10T06:37:00;101308.06;;;16.85;nan
55664;BME280;41540;57.880;12.164;2022-07-10T06:47:00;101334.34;;;17.16;nan
55664;BME280;41540;57.880;12.164;2022-07-10T06:57:20;101287.25;;;17.70;nan
55664;BME280;41540;57.880;12.164;2022-07-10T07:07:20;101085.38;;;20.69;nan
55664;BME280;41540;57.880;12.164;2022-07-10T07:17:21;100410.97;;;23.37;nan
55664;BME280;41540;57.880;12.164;2022-07-10T07:27:22;100340.94;;;25.14;nan
55664;BME280;41540;57.880;12.164;2022-07-10T07:37:23;100318.66;;;24.19;nan
55664;BME280;41540;57.880;12.164;2022-07-10T07:47:24;100360.88;;;21.53;nan
55664;BME280;41540;57.880;12.164;2022-07-10T07:57:25;101043.72;;;19.71;nan
55664;BME280;41540;57.880;12.164;2022-07-10T08:07:39;101064.16;;;19.49;nan
55664;BME280;41540;57.880;12.164;2022-07-10T08:17:40;101064.94;;;19.53;nan
55664;BME280;41540;57.880;12.164;2022-07-10T08:27:41;100924.78;;;20.19;nan
55664;BME280;41540;57.880;12.164;2022-07-10T08:37:42;100866.25;;;20.53;nan
55664;BME280;41540;57.880;12.164;2022-07-10T08:47:43;100664.69;;;21.91;nan
55664;BME280;41540;57.880;12.164;2022-07-10T08:57:45;100541.78;;;20.88;nan
55664;BME280;41540;57.880;12.164;2022-07-10T09:07:45;100696.84;;;21.00;nan
55664;BME280;41540;57.880;12.164;2022-07-10T09:18:00;100576.31;;;22.37;nan
55664;BME280;41540;57.880;12.164;2022-07-10T09:28:01;100400.81;;;21.69;nan
55664;BME280;41540;57.880;12.164;2022-07-10T09:38:05;100361.97;;;22.29;nan
55664;BME280;41540;57.880;12.164;2022-07-10T09:48:07;100529.63;;;20.45;nan
55664;BME280;41540;57.880;12.164;2022-07-10T09:58:08;100437.38;;;21.51;nan
55664;BME280;41540;57.880;12.164;2022-07-10T10:08:11;100366.50;;;21.70;nan
55664;BME280;41540;57.880;12.164;2022-07-10T10:18:12;100292.97;;;21.88;nan
55664;BME280;41540;57.880;12.164;2022-07-10T10:28:14;100305.53;;;22.33;nan
55664;BME280;41540;57.880;12.164;2022-07-10T10:38:16;100375.19;;;20.49;nan
55664;BME280;41540;57.880;12.164;2022-07-10T10:48:17;100312.41;;;20.99;nan
55664;BME280;41540;57.880;12.164;2022-07-10T10:58:18;100503.63;;;20.33;nan
55664;BME280;41540;57.880;12.164;2022-07-10T11:08:41;100296.56;;;19.67;nan
55664;BME280;41540;57.880;12.164;2022-07-10T11:18:43;100387.63;;;21.69;nan
55664;BME280;41540;57.880;12.164;2022-07-10T11:28:54;100344.59;;;22.22;nan
55664;BME280;41540;57.880;12.164;2022-07-10T11:49:04;100385.78;;;21.11;nan
55664;BME280;41540;57.880;12.164;2022-07-10T11:59:10;100359.50;;;20.78;nan
55664;BME280;41540;57.880;12.164;2022-07-10T12:09:15;100374.97;;;21.20;nan
55664;BME280;41540;57.880;12.164;2022-07-10T12:19:20;100399.88;;;21.70;nan
55664;BME280;41540;57.880;12.164;2022-07-10T12:29:25;100373.19;;;22.07;nan
55664;BME280;41540;57.880;12.164;2022-07-10T12:39:26;100356.91;;;22.96;nan
55664;BME280;41540;57.880;12.164;2022-07-10T12:49:26;100307.38;;;21.21;nan
55664;BME280;41540;57.880;12.164;2022-07-10T12:59:27;100425.25;;;20.81;nan
55664;BME280;41540;57.880;12.164;2022-07-10T13:09:29;100405.44;;;23.43;nan
55664;BME280;41540;57.880;12.164;2022-07-10T13:19:29;100290.84;;;21.72;nan
55664;BME280;41540;57.880;12.164;2022-07-10T13:29:29;100367.13;;;22.57;nan
55664;BME280;41540;57.880;12.164;2022-07-10T13:39:30;100395.47;;;20.79;nan
55664;BME280;41540;57.880;12.164;2022-07-10T13:49:30;100392.63;;;22.58;nan
55664;BME280;41540;57.880;12.164;2022-07-10T13:59:31;100413.81;;;23.30;nan
55664;BME280;41540;57.880;12.164;2022-07-10T14:09:31;100422.72;;;21.71;nan
55664;BME280;41540;57.880;12.164;2022-07-10T14:19:31;100256.78;;;21.93;nan
55664;BME280;41540;57.880;12.164;2022-07-10T14:29:32;100356.00;;;22.22;nan
55664;BME280;41540;57.880;12.164;2022-07-10T14:39:32;100407.91;;;21.35;nan
55664;BME280;41540;57.880;12.164;2022-07-10T14:49:33;100348.44;;;20.98;nan
55664;BME280;41540;57.880;12.164;2022-07-10T14:59:33;100446.41;;;20.77;nan
55664;BME280;41540;57.880;12.164;2022-07-10T15:09:33;100431.84;;;19.90;nan
55664;BME280;41540;57.880;12.164;2022-07-10T15:19:34;100612.63;;;20.21;nan
55664;BME280;41540;57.880;12.164;2022-07-10T15:29:34;100663.44;;;20.21;nan
55664;BME280;41540;57.880;12.164;2022-07-10T15:39:34;100861.72;;;19.57;nan
55664;BME280;41540;57.880;12.164;2022-07-10T15:49:41;101029.19;;;19.42;nan
55664;BME280;41540;57.880;12.164;2022-07-10T15:59:41;101215.53;;;19.62;nan
55664;BME280;41540;57.880;12.164;2022-07-10T16:09:43;101147.22;;;19.59;nan
55664;BME280;41540;57.880;12.164;2022-07-10T16:19:44;101142.59;;;19.86;nan
55664;BME280;41540;57.880;12.164;2022-07-10T16:29:46;101082.81;;;19.24;nan
55664;BME280;41540;57.880;12.164;2022-07-10T16:39:46;101116.06;;;19.22;nan
55664;BME280;41540;57.880;12.164;2022-07-10T16:49:47;101142.38;;;19.21;nan
55664;BME280;41540;57.880;12.164;2022-07-10T16:59:47;101132.72;;;20.03;nan
55664;BME280;41540;57.880;12.164;2022-07-10T17:09:47;101084.31;;;19.47;nan
55664;BME280;41540;57.880;12.164;2022-07-10T17:19:48;101169.63;;;19.01;nan
55664;BME280;41540;57.880;12.164;2022-07-10T17:29:48;101170.88;;;18.39;nan
55664;BME280;41540;57.880;12.164;2022-07-10T17:39:48;101161.38;;;18.15;nan
55664;BME280;41540;57.880;12.164;2022-07-10T17:49:55;101191.00;;;18.41;nan
55664;BME280;41540;57.880;12.164;2022-07-10T17:59:55;101150.06;;;17.97;nan
55664;BME280;41540;57.880;12.164;2022-07-10T18:09:55;101192.03;;;18.02;nan
55664;BME280;41540;57.880;12.164;2022-07-10T18:19:56;101196.47;;;17.13;nan
55664;BME280;41540;57.880;12.164;2022-07-10T18:29:58;101142.25;;;16.51;nan
55664;BME280;41540;57.880;12.164;2022-07-10T18:39:58;101077.75;;;16.37;nan
55664;BME280;41540;57.880;12.164;2022-07-10T18:49:59;101059.41;;;16.19;nan
55664;BME280;41540;57.880;12.164;2022-07-10T18:59:59;101046.25;;;15.90;nan
55664;BME280;41540;57.880;12.164;2022-07-10T19:09:59;100998.13;;;15.37;nan
55664;BME280;41540;57.880;12.164;2022-07-10T19:20:00;100980.56;;;15.10;nan
55664;BME280;41540;57.880;12.164;2022-07-10T19:30:00;100910.56;;;14.44;nan
55664;BME280;41540;57.880;12.164;2022-07-10T19:40:02;100984.69;;;14.72;nan
55664;BME280;41540;57.880;12.164;2022-07-10T19:50:04;100981.13;;;14.58;nan
55664;BME280;41540;57.880;12.164;2022-07-10T20:00:05;100945.09;;;14.15;nan
55664;BME280;41540;57.880;12.164;2022-07-10T20:10:07;101012.91;;;14.20;nan
55664;BME280;41540;57.880;12.164;2022-07-10T20:20:08;100938.06;;;13.27;nan
55664;BME280;41540;57.880;12.164;2022-07-10T20:30:10;101051.22;;;13.57;nan
55664;BME280;41540;57.880;12.164;2022-07-10T20:40:15;101062.88;;;13.22;nan
55664;BME280;41540;57.880;12.164;2022-07-10T20:50:16;101098.94;;;12.99;nan
55664;BME280;41540;57.880;12.164;2022-07-10T21:00:17;101091.47;;;12.67;nan
55664;BME280;41540;57.880;12.164;2022-07-10T21:10:17;101149.53;;;12.66;nan
55664;BME280;41540;57.880;12.164;2022-07-10T21:20:38;101195.13;;;12.51;nan
55664;BME280;41540;57.880;12.164;2022-07-10T21:30:39;101222.00;;;12.53;nan
55664;BME280;41540;57.880;12.164;2022-07-10T21:40:39;101145.72;;;11.67;nan
55664;BME280;41540;57.880;12.164;2022-07-10T21:50:40;101319.31;;;12.26;nan
55664;BME280;41540;57.880;12.164;2022-07-10T22:00:41;101393.56;;;12.16;nan
55664;BME280;41540;57.880;12.164;2022-07-10T22:10:41;101469.34;;;11.69;nan
55664;BME280;41540;57.880;12.164;2022-07-10T22:20:41;101734.56;;;11.56;nan
55664;BME280;41540;57.880;12.164;2022-07-10T22:30:42;102073.38;;;11.48;nan
55664;BME280;41540;57.880;12.164;2022-07-10T22:41:01;102217.50;;;11.40;nan
55664;BME280;41540;57.880;12.164;2022-07-10T22:51:02;102178.91;;;11.26;nan
55664;BME280;41540;57.880;12.164;2022-07-10T23:01:03;102194.78;;;11.34;nan
55664;BME280;41540;57.880;12.164;2022-07-10T23:11:05;102571.69;;;11.10;nan
55664;BME280;41540;57.880;12.164;2022-07-10T23:21:05;102890.31;;;10.53;nan
55664;BME280;41540;57.880;12.164;2022-07-10T23:31:06;103055.16;;;11.12;nan
55664;BME280;41540;57.880;12.164;2022-07-10T23:41:06;103008.34;;;10.95;nan
55664;BME280;41540;57.880;12.164;2022-07-10T23:51:07;103005.53;;;10.75;nan
